createdAt,value
2018-10-21T00:00:43.978Z,16.1
2018-10-21T00:06:38.949Z,20.05
2018-10-21T00:12:33.981Z,19.49
2018-10-21T00:18:28.965Z,20.73
2018-10-21T00:24:23.976Z,25.17
2018-10-21T00:30:18.982Z,18.34
2018-10-21T00:36:13.987Z,16.12
2018-10-21T00:42:09.012Z,20.69
2018-10-21T00:48:03.969Z,21.01
2018-10-21T00:53:58.990Z,23.38
2018-10-21T00:59:54.034Z,24.13
2018-10-21T01:05:49.023Z,22.23
2018-10-21T01:11:44.000Z,20.74
2018-10-21T01:17:39.023Z,19.22
2018-10-21T01:23:34.002Z,20.58
2018-10-21T01:29:29.056Z,24.77
2018-10-21T01:35:24.030Z,24.56
2018-10-21T01:41:19.023Z,19.69
2018-10-21T01:47:14.007Z,20.57
2018-10-21T01:53:09.006Z,22.82
2018-10-21T01:59:04.072Z,25.5
2018-10-21T02:04:59.089Z,23.63
2018-10-21T02:10:54.057Z,28.16
2018-10-21T02:16:49.100Z,20.65
2018-10-21T02:22:44.031Z,23.27
2018-10-21T02:28:39.149Z,22.59
2018-10-21T02:34:34.037Z,23.84
2018-10-21T02:40:29.072Z,23.66
2018-10-21T02:46:24.077Z,23
2018-10-21T02:52:19.079Z,23.08
2018-10-21T02:58:14.074Z,21.92
2018-10-21T03:04:09.056Z,23.2
2018-10-21T03:10:04.099Z,25.01
2018-10-21T03:15:59.092Z,25.57
2018-10-21T03:21:54.136Z,23.8
2018-10-21T03:27:49.125Z,22.84
2018-10-21T03:33:44.152Z,30.57
2018-10-21T03:39:39.089Z,23.39
2018-10-21T03:45:34.079Z,25.61
2018-10-21T03:51:29.095Z,27.47
2018-10-21T03:57:24.124Z,23.86
2018-10-21T04:03:19.158Z,28.37
2018-10-21T04:09:14.104Z,24.85
2018-10-21T04:15:09.149Z,25.53
2018-10-21T04:21:04.125Z,24.44
2018-10-21T04:26:59.105Z,25.69
2018-10-21T04:32:54.142Z,24.33
2018-10-21T04:38:49.182Z,25.11
2018-10-21T04:44:44.176Z,24.41
2018-10-21T04:50:39.133Z,24.5
2018-10-21T04:56:34.129Z,24.14
2018-10-21T05:02:29.124Z,28.17
2018-10-21T05:08:24.179Z,22.95
2018-10-21T05:14:19.204Z,25.32
2018-10-21T05:20:14.159Z,26.76
2018-10-21T05:26:09.142Z,26.5
2018-10-21T05:32:04.196Z,26.1
2018-10-21T05:37:59.209Z,28.72
2018-10-21T05:43:54.193Z,28.55
2018-10-21T05:49:49.147Z,27.73
2018-10-21T05:55:44.210Z,29.16
2018-10-21T06:01:39.171Z,26.87
2018-10-21T06:07:34.179Z,28.05
2018-10-21T06:13:29.221Z,25.02
2018-10-21T06:19:24.202Z,24.2
2018-10-21T06:25:19.198Z,26.62
2018-10-21T06:31:14.244Z,24.92
2018-10-21T06:37:09.208Z,31.35
2018-10-21T06:43:04.200Z,31.35
2018-10-21T06:48:59.199Z,28.73
2018-10-21T06:54:54.202Z,38.22
2018-10-21T07:00:49.211Z,33.55
2018-10-21T07:06:44.232Z,40.35
2018-10-21T07:12:39.231Z,36.37
2018-10-21T07:18:34.234Z,33.76
2018-10-21T07:24:29.260Z,30.43
2018-10-21T07:30:24.249Z,39.04
2018-10-21T07:36:19.304Z,38.38
2018-10-21T07:42:14.297Z,40.84
2018-10-21T07:48:09.264Z,42.91
2018-10-21T07:54:04.271Z,44.21
2018-10-21T07:59:59.314Z,47.81
2018-10-21T08:05:54.244Z,39.33
2018-10-21T08:11:49.274Z,35.87
2018-10-21T08:17:44.245Z,40.58
2018-10-21T08:23:39.262Z,39.58
2018-10-21T08:29:34.334Z,35.27
2018-10-21T08:35:29.283Z,33.57
2018-10-21T08:41:24.285Z,33.57
2018-10-21T08:47:19.296Z,31.96
2018-10-21T08:53:14.298Z,31.75
2018-10-21T08:59:09.284Z,34.83
2018-10-21T09:05:04.374Z,35
2018-10-21T09:10:59.356Z,31.82
2018-10-21T09:16:54.307Z,28.62
2018-10-21T09:22:49.438Z,32.11
2018-10-21T09:28:44.314Z,27.23
2018-10-21T09:34:39.331Z,26.21
2018-10-21T09:40:34.345Z,22.64
2018-10-21T09:46:29.308Z,27.68
2018-10-21T09:52:24.360Z,23.11
2018-10-21T09:58:19.491Z,22.93
2018-10-21T10:04:14.408Z,25.38
2018-10-21T10:10:09.363Z,23.48
2018-10-21T10:16:04.352Z,19.49
2018-10-21T10:21:59.334Z,17.84
2018-10-21T10:27:54.368Z,35.04
2018-10-21T10:33:49.337Z,93.77
2018-10-21T10:39:44.344Z,57.16
2018-10-21T10:45:39.352Z,42.29
2018-10-21T10:51:34.378Z,46.68
2018-10-21T10:57:29.386Z,23.39
2018-10-21T11:03:24.402Z,21.88
2018-10-21T11:09:19.382Z,23.76
2018-10-21T11:15:14.364Z,19.94
2018-10-21T11:21:09.387Z,22.52
2018-10-21T11:27:04.392Z,19.35
2018-10-21T11:32:59.396Z,19.87
2018-10-21T11:38:54.487Z,19.04
2018-10-21T11:44:49.398Z,21.11
2018-10-21T11:50:44.407Z,16.47
2018-10-21T11:56:39.427Z,19.67
2018-10-21T12:02:34.464Z,17.97
2018-10-21T12:08:29.452Z,15.88
2018-10-21T12:14:24.499Z,19.3
2018-10-21T12:20:19.470Z,19.73
2018-10-21T12:26:14.474Z,19.28
2018-10-21T12:32:09.472Z,18.44
2018-10-21T12:38:04.443Z,20.8
2018-10-21T12:43:59.451Z,18.55
2018-10-21T12:49:54.462Z,24.43
2018-10-21T12:55:49.535Z,18.31
2018-10-21T13:01:44.464Z,19.97
2018-10-21T13:07:39.477Z,18.81
2018-10-21T13:13:34.490Z,18.88
2018-10-21T13:19:29.523Z,15.6
2018-10-21T13:25:24.479Z,20.55
2018-10-21T13:31:19.648Z,15.3
2018-10-21T13:37:14.554Z,20.87
2018-10-21T13:43:09.538Z,15.87
2018-10-21T13:49:04.554Z,16.93
2018-10-21T13:54:59.531Z,21.54
2018-10-21T14:00:54.568Z,16.67
2018-10-21T14:06:49.591Z,16.67
2018-10-21T14:12:44.529Z,15.22
2018-10-21T14:18:39.612Z,14.47
2018-10-21T14:24:34.615Z,14.28
2018-10-21T14:30:29.576Z,17.76
2018-10-21T14:36:24.526Z,16.65
2018-10-21T14:42:19.570Z,18.3
2018-10-21T14:48:14.593Z,17.04
2018-10-21T14:54:09.645Z,18.11
2018-10-21T15:00:04.590Z,19.85
2018-10-21T15:05:59.591Z,20.55
2018-10-21T15:11:54.595Z,20.84
2018-10-21T15:17:49.540Z,23.39
2018-10-21T15:23:44.549Z,23.5
2018-10-21T15:29:39.585Z,24.1
2018-10-21T15:35:34.614Z,28.29
2018-10-21T15:41:29.595Z,29.54
2018-10-21T15:47:24.586Z,25.04
2018-10-21T15:53:19.605Z,29.13
2018-10-21T15:59:14.634Z,25.09
2018-10-21T16:05:09.602Z,25.05
2018-10-21T16:11:04.608Z,11.5
2018-10-21T16:16:59.613Z,8.78
2018-10-21T16:22:54.616Z,9.59
2018-10-21T16:28:49.603Z,8.21
2018-10-21T16:34:44.675Z,5.95
2018-10-21T16:40:39.629Z,5.39
2018-10-21T16:46:34.630Z,3.65
2018-10-21T16:52:29.623Z,6.14
2018-10-21T16:58:24.624Z,4.17
2018-10-21T17:04:19.652Z,3.6
2018-10-21T17:10:15.131Z,3.55
2018-10-21T17:16:09.806Z,4.2
2018-10-21T17:22:04.708Z,3.52
2018-10-21T17:27:59.733Z,3.44
2018-10-21T17:33:54.661Z,2.44
2018-10-21T17:39:49.659Z,3.07
2018-10-21T17:45:44.677Z,4.35
2018-10-21T17:51:39.668Z,4.29
2018-10-21T17:57:34.669Z,3.98
2018-10-21T18:03:29.680Z,3.28
2018-10-21T18:09:27.116Z,5.61
2018-10-21T18:15:19.690Z,5.44
2018-10-21T18:21:14.712Z,3.07
2018-10-21T18:27:09.688Z,2.54
2018-10-21T18:33:04.756Z,2.53
2018-10-21T18:38:59.691Z,3.7
2018-10-21T18:44:54.708Z,2.91
2018-10-21T18:50:49.715Z,2.43
2018-10-21T18:56:44.715Z,1.93
2018-10-21T19:02:39.775Z,4
2018-10-21T19:08:34.718Z,1.8
2018-10-21T19:14:29.707Z,2.24
2018-10-21T19:20:24.718Z,2.69
2018-10-21T19:26:19.731Z,1.87
2018-10-21T19:32:14.726Z,2.05
2018-10-21T19:38:09.715Z,2.12
2018-10-21T19:44:04.737Z,2.26
2018-10-21T19:49:59.807Z,1.52
2018-10-21T19:55:54.778Z,1.28
2018-10-21T20:01:49.724Z,2.07
2018-10-21T20:07:44.756Z,1.64
2018-10-21T20:13:39.759Z,1.36
2018-10-21T20:19:34.797Z,1.67
2018-10-21T20:25:29.763Z,2.05
2018-10-21T20:31:24.774Z,1.33
2018-10-21T20:37:19.822Z,1.7
2018-10-21T20:43:14.784Z,1.89
2018-10-21T20:49:09.762Z,2
2018-10-21T20:55:04.785Z,2.51
2018-10-21T21:00:59.782Z,1.69
2018-10-21T21:06:54.777Z,1.88
2018-10-21T21:12:49.787Z,2.75
2018-10-21T21:18:44.813Z,3.24
2018-10-21T21:24:39.799Z,2.48
2018-10-21T21:30:34.888Z,3
2018-10-21T21:36:29.799Z,2.11
2018-10-21T21:42:24.831Z,1.88
2018-10-21T21:48:19.926Z,2.12
2018-10-21T21:54:14.900Z,2.63
2018-10-21T22:00:09.899Z,2.85
2018-10-21T22:06:04.795Z,2.02
2018-10-21T22:11:59.845Z,1.84
2018-10-21T22:17:54.810Z,3.47
2018-10-21T22:23:49.830Z,3.34
2018-10-21T22:29:44.821Z,3.23
2018-10-21T22:35:39.846Z,1.63
2018-10-21T22:41:34.879Z,2.62
2018-10-21T22:47:29.860Z,2.17
2018-10-21T22:53:24.896Z,2.95
2018-10-21T22:59:19.874Z,1.99
2018-10-21T23:05:14.896Z,3.94
2018-10-21T23:11:09.872Z,3.54
2018-10-21T23:17:04.874Z,1.82
2018-10-21T23:22:59.881Z,3.22
2018-10-21T23:28:54.868Z,3.74
2018-10-21T23:34:49.928Z,3.52
2018-10-21T23:40:44.902Z,2.54
2018-10-21T23:46:39.901Z,4.98
2018-10-21T23:52:34.884Z,4.85
2018-10-21T23:58:29.897Z,4.32
